Time;durP1;ratioP1;P1;durP2;ratioP2;P2;SDS_P1;SDS_P2;PMS_P1;PMS_P2;Temp;Humidity;BMP_temperature;BMP_pressure;BME280_temperature;BME280_humidity;BME280_pressure;Samples;Min_cycle;Max_cycle;Signal;HPM_P1;HPM_P2
2021/11/01 00:00:22;;;;;;;31.77;4.97;;;9.70;99.90;;;;;;4981112;28;20046;-84
2021/11/01 00:02:49;;;;;;;30.33;5.05;;;9.70;99.90;;;;;;5017361;28;20468;-83
2021/11/01 00:05:16;;;;;;;26.67;5.97;;;9.60;99.90;;;;;;4986715;28;20042;-83
2021/11/01 00:07:42;;;;;;;26.35;5.07;;;9.70;99.90;;;;;;4986268;28;20041;-82
2021/11/01 00:10:11;;;;;;;32.35;5.40;;;9.60;99.90;;;;;;5001975;28;20132;-83
2021/11/01 00:12:38;;;;;;;32.65;5.65;;;9.60;99.90;;;;;;4974775;28;20113;-83
2021/11/01 00:15:05;;;;;;;27.83;6.28;;;9.60;99.90;;;;;;4978255;28;20062;-83
2021/11/01 00:17:31;;;;;;;25.17;5.47;;;9.60;99.90;;;;;;5007919;28;20076;-83
2021/11/01 00:19:57;;;;;;;28.60;5.75;;;9.50;99.90;;;;;;4977191;28;20045;-83
2021/11/01 00:22:24;;;;;;;23.48;5.90;;;9.50;99.90;;;;;;4980012;28;20368;-83
2021/11/01 00:24:50;;;;;;;22.33;5.35;;;9.50;99.90;;;;;;4974093;28;20121;-83
2021/11/01 00:27:17;;;;;;;28.98;6.43;;;9.50;99.90;;;;;;4992103;28;20046;-83
2021/11/01 00:29:44;;;;;;;29.77;5.75;;;9.50;99.90;;;;;;5008228;28;20042;-83
2021/11/01 00:32:10;;;;;;;26.38;4.93;;;9.50;99.90;;;;;;4995195;28;20049;-83
2021/11/01 00:34:38;;;;;;;26.08;5.78;;;9.50;99.90;;;;;;4991218;28;20142;-83
2021/11/01 00:37:04;;;;;;;27.45;5.82;;;9.50;99.90;;;;;;4974465;28;20512;-83
2021/11/01 00:39:30;;;;;;;28.33;5.40;;;9.50;99.90;;;;;;4978862;28;20135;-83
2021/11/01 00:41:56;;;;;;;28.23;5.28;;;9.60;99.90;;;;;;4976503;28;20048;-83
2021/11/01 00:44:22;;;;;;;26.83;6.07;;;9.50;99.90;;;;;;4975524;28;20077;-83
2021/11/01 00:46:48;;;;;;;25.42;5.28;;;9.50;99.90;;;;;;4992490;28;20104;-83
2021/11/01 00:49:14;;;;;;;30.10;4.72;;;9.50;99.90;;;;;;5006861;28;20181;-83
2021/11/01 00:51:43;;;;;;;26.30;5.13;;;9.50;99.90;;;;;;4998172;28;20041;-83
2021/11/01 00:54:09;;;;;;;21.38;5.05;;;9.40;99.90;;;;;;4975141;28;20042;-84
2021/11/01 00:56:37;;;;;;;30.08;5.97;;;9.40;99.90;;;;;;4997365;28;20072;-83
2021/11/01 00:59:04;;;;;;;29.95;5.60;;;9.30;99.90;;;;;;4979764;28;20045;-82
2021/11/01 01:01:32;;;;;;;26.33;5.78;;;9.40;99.90;;;;;;5005437;28;20048;-82
2021/11/01 01:04:00;;;;;;;27.23;4.78;;;9.40;99.90;;;;;;5018738;28;20065;-82
2021/11/01 01:06:26;;;;;;;26.33;4.80;;;9.30;99.90;;;;;;5011188;28;20053;-82
2021/11/01 01:08:53;;;;;;;28.35;5.78;;;9.30;99.90;;;;;;5000043;28;20145;-82
2021/11/01 01:11:20;;;;;;;28.40;5.15;;;9.40;99.90;;;;;;4985335;28;20137;-83
2021/11/01 01:13:46;;;;;;;24.00;5.65;;;9.30;99.90;;;;;;4981795;28;20107;-84
2021/11/01 01:18:51;;;;;;;21.30;5.35;;;9.30;99.90;;;;;;5001838;28;20295;-83
2021/11/01 01:24:04;;;;;;;31.70;5.75;;;9.20;99.90;;;;;;4990384;28;20038;-84
2021/11/01 01:26:31;;;;;;;24.20;4.57;;;9.30;99.90;;;;;;4982287;28;20048;-83
2021/11/01 01:28:57;;;;;;;27.35;4.60;;;9.20;99.90;;;;;;5024407;28;20050;-83
2021/11/01 01:31:24;;;;;;;23.75;4.43;;;9.20;99.90;;;;;;5002785;28;20041;-83
2021/11/01 01:33:51;;;;;;;26.15;4.78;;;9.10;99.90;;;;;;4992855;28;20053;-83
2021/11/01 01:36:17;;;;;;;23.85;4.72;;;9.20;99.90;;;;;;4978385;28;20095;-83
2021/11/01 01:38:43;;;;;;;25.38;5.60;;;9.10;99.90;;;;;;4996761;28;20050;-83
2021/11/01 01:41:18;;;;;;;24.50;4.40;;;9.10;99.90;;;;;;5015077;28;20526;-83
2021/11/01 01:43:53;;;;;;;20.83;5.22;;;9.10;99.90;;;;;;5024529;28;20069;-83
2021/11/01 01:46:21;;;;;;;30.52;4.90;;;9.10;99.90;;;;;;5002703;28;20041;-84
2021/11/01 01:48:49;;;;;;;22.48;4.68;;;9.00;99.90;;;;;;5006892;28;20070;-83
2021/11/01 01:51:16;;;;;;;25.90;4.88;;;9.00;99.90;;;;;;4989747;28;20137;-83
2021/11/01 01:53:44;;;;;;;27.08;4.88;;;9.00;99.90;;;;;;4988541;28;20045;-83
2021/11/01 01:56:10;;;;;;;22.35;4.13;;;9.00;99.90;;;;;;4978333;28;20124;-83
2021/11/01 01:58:45;;;;;;;26.85;5.25;;;9.00;99.90;;;;;;4975059;28;20058;-83
2021/11/01 02:01:15;;;;;;;17.90;4.53;;;9.00;99.90;;;;;;4990708;28;20045;-83
2021/11/01 02:03:46;;;;;;;26.17;5.10;;;9.00;99.90;;;;;;4975231;28;20048;-84
2021/11/01 02:06:17;;;;;;;21.77;4.00;;;9.00;99.90;;;;;;4990812;28;20042;-83
2021/11/01 02:09:01;;;;;;;18.60;4.68;;;8.90;99.90;;;;;;4979162;28;20061;-83
2021/11/01 02:11:53;;;;;;;23.58;4.72;;;9.00;99.90;;;;;;4991277;28;20042;-83
2021/11/01 02:14:23;;;;;;;20.50;4.60;;;8.90;99.90;;;;;;4999730;28;20617;-83
2021/11/01 02:16:50;;;;;;;27.73;4.68;;;8.90;99.90;;;;;;4980046;28;20369;-83
2021/11/01 02:19:22;;;;;;;20.60;4.93;;;8.90;99.90;;;;;;4998673;28;20041;-82
2021/11/01 02:22:01;;;;;;;19.30;5.00;;;8.90;99.90;;;;;;5012244;28;20046;-84
2021/11/01 02:24:56;;;;;;;22.13;4.05;;;8.90;99.90;;;;;;4997052;28;20052;-83
2021/11/01 02:27:25;;;;;;;20.70;4.82;;;8.90;99.90;;;;;;5030981;28;20517;-83
2021/11/01 02:29:51;;;;;;;23.75;4.47;;;8.90;99.90;;;;;;4973299;28;20045;-83
2021/11/01 02:32:20;;;;;;;17.05;4.53;;;8.90;99.90;;;;;;5006708;28;20042;-81
2021/11/01 02:34:46;;;;;;;23.52;5.40;;;8.90;99.90;;;;;;4999888;28;20088;-82
2021/11/01 02:37:12;;;;;;;19.73;4.53;;;8.90;99.90;;;;;;4992952;28;20148;-82
2021/11/01 02:40:05;;;;;;;19.25;4.25;;;8.90;99.90;;;;;;5010794;28;20046;-82
2021/11/01 02:42:31;;;;;;;24.50;4.30;;;8.90;99.90;;;;;;4991421;28;20037;-83
2021/11/01 02:45:15;;;;;;;22.67;3.92;;;8.90;99.90;;;;;;5027073;28;20053;-82
2021/11/01 02:47:41;;;;;;;26.73;4.13;;;8.80;99.90;;;;;;4994298;28;20457;-83
2021/11/01 02:50:10;;;;;;;16.67;3.65;;;8.80;99.90;;;;;;5023827;28;20138;-83
2021/11/01 02:52:40;;;;;;;22.60;5.07;;;8.80;99.90;;;;;;4994615;28;20045;-81
2021/11/01 02:55:09;;;;;;;19.88;4.95;;;8.80;99.90;;;;;;5010125;28;20498;-83
2021/11/01 02:57:35;;;;;;;15.60;3.72;;;8.70;99.90;;;;;;5008923;28;20383;-80
2021/11/01 03:00:03;;;;;;;16.33;3.78;;;8.70;99.90;;;;;;5003263;28;20151;-81
2021/11/01 03:02:30;;;;;;;24.40;4.30;;;8.70;99.90;;;;;;4997826;28;20490;-81
2021/11/01 03:04:56;;;;;;;14.95;4.53;;;8.70;99.90;;;;;;5026411;28;20061;-81
2021/11/01 03:07:24;;;;;;;23.42;4.53;;;8.60;99.90;;;;;;5004686;28;20053;-84
2021/11/01 03:09:51;;;;;;;19.52;3.65;;;8.60;99.90;;;;;;4992839;28;20089;-82
2021/11/01 03:12:18;;;;;;;20.00;4.18;;;8.60;99.90;;;;;;4994128;28;20092;-81
2021/11/01 03:14:49;;;;;;;21.88;3.75;;;8.60;99.90;;;;;;5008794;28;20088;-81
2021/11/01 03:17:20;;;;;;;20.73;4.45;;;8.60;99.90;;;;;;4990178;28;20046;-81
2021/11/01 03:19:50;;;;;;;23.83;5.28;;;8.50;99.90;;;;;;4986607;28;20056;-81
2021/11/01 03:22:17;;;;;;;23.65;4.43;;;8.50;99.90;;;;;;5024303;28;20489;-81
2021/11/01 03:24:46;;;;;;;17.95;4.15;;;8.50;99.90;;;;;;4993511;28;20584;-81
2021/11/01 03:27:16;;;;;;;18.70;4.10;;;8.40;99.90;;;;;;5002445;28;20113;-82
2021/11/01 03:29:45;;;;;;;20.05;4.13;;;8.50;99.90;;;;;;5009629;28;20057;-81
2021/11/01 03:32:13;;;;;;;20.02;4.40;;;8.40;99.90;;;;;;5002731;28;20955;-81
2021/11/01 03:34:41;;;;;;;17.55;4.05;;;8.40;99.90;;;;;;5039945;28;20425;-81
2021/11/01 03:37:10;;;;;;;17.67;4.30;;;8.40;99.90;;;;;;4984456;28;20492;-81
2021/11/01 03:39:39;;;;;;;20.85;4.32;;;8.30;99.90;;;;;;4991494;28;20057;-81
2021/11/01 03:42:08;;;;;;;12.38;4.15;;;8.30;99.90;;;;;;4977272;28;20551;-81
2021/11/01 03:44:38;;;;;;;15.52;4.25;;;8.30;99.90;;;;;;4990264;28;20061;-80
2021/11/01 03:47:06;;;;;;;15.38;3.53;;;8.30;99.90;;;;;;4976563;28;20081;-81
2021/11/01 03:49:36;;;;;;;17.63;3.78;;;8.20;99.90;;;;;;5003774;28;20582;-83
2021/11/01 03:54:30;;;;;;;18.30;3.60;;;8.20;99.90;;;;;;4995075;28;20042;-83
2021/11/01 03:56:58;;;;;;;13.45;3.47;;;8.20;99.90;;;;;;4989559;28;20398;-83
2021/11/01 03:59:26;;;;;;;13.90;3.45;;;8.20;99.90;;;;;;4976599;28;20046;-83
2021/11/01 04:01:53;;;;;;;17.90;4.28;;;8.20;99.90;;;;;;4979777;28;20099;-82
2021/11/01 04:04:19;;;;;;;18.27;3.83;;;8.20;99.90;;;;;;4975663;28;20038;-82
2021/11/01 04:06:45;;;;;;;24.08;4.10;;;8.10;99.90;;;;;;4975795;28;20442;-83
2021/11/01 04:09:15;;;;;;;15.38;3.42;;;8.10;99.90;;;;;;4991740;28;20046;-83
2021/11/01 04:11:49;;;;;;;17.48;3.50;;;8.10;99.90;;;;;;5005125;28;20525;-82
2021/11/01 04:14:18;;;;;;;15.70;3.72;;;8.10;99.90;;;;;;5039590;28;20100;-82
2021/11/01 04:16:48;;;;;;;16.23;3.50;;;8.10;99.90;;;;;;4975497;28;20092;-83
2021/11/01 04:21:44;;;;;;;16.05;4.18;;;8.10;99.90;;;;;;4993142;28;20073;-83
2021/11/01 04:24:10;;;;;;;18.20;3.30;;;8.10;99.90;;;;;;4988427;28;20037;-82
2021/11/01 04:26:36;;;;;;;16.08;3.35;;;8.10;99.90;;;;;;4995572;28;20566;-83
2021/11/01 04:29:07;;;;;;;16.33;4.18;;;8.10;99.90;;;;;;4980090;28;20038;-82
2021/11/01 04:31:37;;;;;;;11.80;3.65;;;8.10;99.90;;;;;;5008894;28;20560;-83
2021/11/01 04:34:22;;;;;;;12.38;3.25;;;8.10;99.90;;;;;;4999040;28;20161;-83
2021/11/01 04:36:51;;;;;;;17.80;3.40;;;8.10;99.90;;;;;;4957837;28;20429;-82
2021/11/01 04:39:45;;;;;;;17.02;3.75;;;8.10;99.90;;;;;;4994492;28;20402;-82
2021/11/01 04:42:39;;;;;;;16.83;3.92;;;8.10;99.90;;;;;;4989010;28;20104;-83
2021/11/01 04:53:09;;;;;;;19.02;3.63;;;8.20;99.90;;;;;;4990190;28;20053;-83
2021/11/01 04:55:36;;;;;;;16.60;3.30;;;8.10;99.90;;;;;;5003291;28;20053;-82
2021/11/01 04:58:03;;;;;;;15.50;3.20;;;8.10;99.90;;;;;;5026082;28;20111;-82
2021/11/01 05:00:30;;;;;;;22.48;3.55;;;8.10;99.90;;;;;;4979661;28;20053;-83
2021/11/01 05:03:04;;;;;;;11.68;3.25;;;7.90;99.90;;;;;;5010047;28;20497;-83
2021/11/01 05:05:30;;;;;;;13.43;3.80;;;8.00;99.90;;;;;;4976808;28;20046;-83
2021/11/01 05:07:59;;;;;;;13.93;3.92;;;8.00;99.90;;;;;;4987767;28;20570;-84
2021/11/01 05:10:34;;;;;;;13.43;3.47;;;8.00;99.90;;;;;;4990854;28;20187;-82
2021/11/01 05:13:06;;;;;;;15.13;3.80;;;8.00;99.90;;;;;;5007806;28;20574;-82
2021/11/01 05:15:39;;;;;;;18.67;3.47;;;8.00;99.90;;;;;;5039475;28;20054;-83
2021/11/01 05:20:58;;;;;;;15.25;3.38;;;7.90;99.90;;;;;;5009325;28;20369;-80
2021/11/01 05:23:31;;;;;;;12.80;3.58;;;8.00;99.90;;;;;;5010061;28;20620;-81
2021/11/01 05:26:05;;;;;;;13.25;3.95;;;8.00;99.90;;;;;;4999316;28;20057;-80
2021/11/01 05:28:44;;;;;;;12.07;3.10;;;8.00;99.90;;;;;;4977247;28;20092;-79
2021/11/01 05:31:29;;;;;;;14.63;4.60;;;7.90;99.90;;;;;;4977421;28;20045;-79
2021/11/01 05:34:09;;;;;;;13.43;3.40;;;7.90;99.90;;;;;;5013886;28;20105;-79
2021/11/01 05:36:35;;;;;;;15.80;3.53;;;7.90;99.90;;;;;;5006917;28;20057;-80
2021/11/01 05:39:02;;;;;;;13.25;3.35;;;7.90;99.90;;;;;;4992968;28;20472;-78
2021/11/01 05:41:28;;;;;;;12.82;3.33;;;7.90;99.90;;;;;;4976943;28;20116;-76
2021/11/01 05:43:55;;;;;;;15.80;3.65;;;7.90;99.90;;;;;;4976615;28;20050;-78
2021/11/01 05:46:21;;;;;;;11.18;3.17;;;7.90;99.90;;;;;;4993083;28;20762;-78
2021/11/01 05:48:52;;;;;;;14.10;3.35;;;7.90;99.90;;;;;;4992962;28;20073;-83
2021/11/01 05:51:21;;;;;;;17.52;3.92;;;7.90;99.90;;;;;;5026184;28;20069;-81
2021/11/01 05:53:52;;;;;;;12.30;3.28;;;7.90;99.90;;;;;;5020446;28;20452;-80
2021/11/01 05:56:32;;;;;;;13.00;3.42;;;7.90;99.90;;;;;;4992045;28;20081;-81
2021/11/01 06:01:54;;;;;;;19.20;4.57;;;7.90;99.90;;;;;;4993564;28;20049;-81
2021/11/01 06:07:33;;;;;;;16.50;4.38;;;7.90;99.90;;;;;;5008675;28;20118;-79
2021/11/01 06:15:10;;;;;;;15.32;4.13;;;7.90;99.90;;;;;;5015426;28;20042;-80
2021/11/01 06:17:37;;;;;;;15.75;3.90;;;7.90;99.90;;;;;;5045258;28;20045;-78
2021/11/01 06:20:05;;;;;;;13.38;4.03;;;7.90;99.90;;;;;;4996603;28;20042;-79
2021/11/01 06:22:31;;;;;;;17.88;4.00;;;7.90;99.90;;;;;;4980189;28;20360;-79
2021/11/01 06:25:00;;;;;;;18.95;3.85;;;7.90;99.90;;;;;;4980022;28;20042;-79
2021/11/01 06:27:27;;;;;;;14.60;4.05;;;7.90;99.90;;;;;;4996001;28;20052;-79
2021/11/01 06:30:04;;;;;;;13.05;4.57;;;7.90;99.90;;;;;;4980562;28;20046;-81
2021/11/01 06:43:20;;;;;;;17.80;4.50;;;8.00;99.90;;;;;;5012301;28;20049;-79
2021/11/01 06:51:03;;;;;;;14.73;4.00;;;8.00;99.90;;;;;;5016100;28;20053;-80
2021/11/01 07:15:16;;;;;;;16.88;4.47;;;8.40;99.90;;;;;;5011422;28;20045;-81
2021/11/01 08:26:09;;;;;;;8.23;3.08;;;10.80;99.90;;;;;;4954361;28;20074;-85
2021/11/01 08:39:44;;;;;;;14.88;4.00;;;9.90;99.90;;;;;;4985247;28;20118;-83
2021/11/01 08:47:42;;;;;;;10.48;3.17;;;9.80;99.90;;;;;;4938188;28;20047;-81
2021/11/01 08:50:27;;;;;;;10.88;3.97;;;9.80;99.90;;;;;;4922733;28;20051;-85
2021/11/01 09:06:47;;;;;;;15.60;4.82;;;9.80;99.90;;;;;;4960134;28;20042;-83
2021/11/01 09:20:24;;;;;;;10.15;3.45;;;10.20;99.90;;;;;;4945390;28;20046;-85
2021/11/01 09:28:17;;;;;;;9.80;3.42;;;11.10;99.90;;;;;;4988082;28;20043;-84
2021/11/01 09:39:30;;;;;;;9.03;3.37;;;10.60;99.90;;;;;;4898608;29;20726;-84
2021/11/01 09:42:00;;;;;;;12.25;3.85;;;10.60;99.90;;;;;;4917837;29;20049;-83
2021/11/01 09:44:28;;;;;;;14.95;3.70;;;10.40;99.90;;;;;;4901906;29;20047;-84
2021/11/01 09:46:56;;;;;;;12.38;3.47;;;10.30;99.90;;;;;;4902558;29;20422;-82
2021/11/01 09:49:22;;;;;;;7.25;2.75;;;10.30;99.90;;;;;;4915428;29;20102;-83
2021/11/01 09:51:51;;;;;;;10.32;3.38;;;10.40;99.90;;;;;;4917680;29;20585;-83
2021/11/01 09:54:23;;;;;;;10.05;3.17;;;11.10;99.90;;;;;;4916463;29;20057;-84
2021/11/01 09:56:59;;;;;;;9.52;3.03;;;11.80;99.90;;;;;;4899128;29;20207;-83
2021/11/01 09:59:29;;;;;;;9.77;3.10;;;12.00;99.90;;;;;;4914155;29;20205;-83
2021/11/01 10:01:56;;;;;;;9.00;2.30;;;12.50;99.90;;;;;;4917854;29;20387;-83
2021/11/01 10:04:31;;;;;;;8.27;2.78;;;13.00;99.90;;;;;;4925287;29;20047;-84
2021/11/01 10:07:30;;;;;;;10.10;3.28;;;13.40;99.90;;;;;;4922538;29;20055;-84
2021/11/01 10:10:08;;;;;;;11.50;3.60;;;13.80;99.90;;;;;;4936844;28;20519;-86
2021/11/01 10:12:36;;;;;;;9.95;2.60;;;14.30;99.90;;;;;;4947769;28;20480;-83
2021/11/01 10:17:34;;;;;;;9.60;4.53;;;14.50;99.90;;;;;;4979709;28;20050;-85
2021/11/01 10:18:04;;;;;;;6.97;2.28;;;14.50;99.90;;;;;;5002924;28;20043;-86
2021/11/01 10:20:32;;;;;;;8.95;2.63;;;14.20;99.90;;;;;;4989616;28;20034;-85
2021/11/01 10:22:59;;;;;;;10.45;2.40;;;14.40;99.90;;;;;;4988793;28;20048;-86
2021/11/01 10:25:26;;;;;;;9.43;2.67;;;14.50;99.90;;;;;;4969150;28;20450;-85
2021/11/01 10:27:58;;;;;;;7.10;1.75;;;14.90;99.90;;;;;;4989114;28;20104;-85
2021/11/01 10:30:32;;;;;;;8.45;2.45;;;14.90;99.90;;;;;;4957239;28;20042;-85
2021/11/01 10:33:04;;;;;;;11.55;2.78;;;14.50;99.90;;;;;;5022630;28;20391;-86
2021/11/01 10:35:39;;;;;;;7.97;1.90;;;14.40;99.90;;;;;;4989641;28;20051;-86
2021/11/01 10:38:21;;;;;;;8.95;2.63;;;14.00;99.90;;;;;;4969890;28;20054;-87
2021/11/01 10:43:39;;;;;;;9.07;2.20;;;12.90;99.90;;;;;;4989678;28;20077;-85
2021/11/01 11:13:30;;;;;;;6.28;1.42;;;15.70;99.90;;;;;;4991281;28;20133;-85
2021/11/01 11:15:57;;;;;;;6.72;1.92;;;16.30;99.90;;;;;;5025601;28;20050;-86
2021/11/01 11:18:50;;;;;;;6.80;1.75;;;16.90;99.90;;;;;;4981462;28;20418;-86
2021/11/01 11:47:27;;;;;;;6.32;1.33;;;17.00;93.80;;;;;;4940123;28;20049;-84
2021/11/01 11:49:54;;;;;;;6.70;1.80;;;16.40;96.50;;;;;;4972309;28;20046;-84
2021/11/01 11:52:23;;;;;;;8.38;1.77;;;16.40;95.70;;;;;;5004253;28;20042;-84
2021/11/01 11:54:55;;;;;;;7.20;1.77;;;16.50;95.10;;;;;;4972429;28;20451;-84
2021/11/01 11:57:28;;;;;;;6.70;1.40;;;17.00;97.50;;;;;;4956209;28;20101;-85
2021/11/01 11:59:59;;;;;;;4.95;1.73;;;17.30;91.40;;;;;;4955912;28;20043;-85
2021/11/01 12:02:42;;;;;;;5.43;1.48;;;18.00;94.00;;;;;;4955877;28;20047;-85
2021/11/01 12:05:14;;;;;;;8.38;1.95;;;17.70;82.40;;;;;;4967429;28;20050;-85
2021/11/01 12:19:15;;;;;;;6.97;1.80;;;17.90;82.90;;;;;;4988064;28;20403;-83
2021/11/01 12:21:44;;;;;;;3.28;1.40;;;18.00;74.00;;;;;;4971944;28;20074;-85
2021/11/01 12:24:24;;;;;;;7.97;1.85;;;17.70;75.20;;;;;;4971949;28;20443;-84
2021/11/01 12:27:04;;;;;;;6.07;1.17;;;18.10;77.90;;;;;;4968921;28;20481;-84
2021/11/01 12:29:31;;;;;;;6.93;1.70;;;17.90;74.40;;;;;;4952137;28;20137;-84
2021/11/01 12:32:08;;;;;;;7.25;2.05;;;17.60;76.20;;;;;;4968323;28;20043;-84
2021/11/01 12:37:30;;;;;;;6.53;1.88;;;16.80;79.50;;;;;;4967379;28;20104;-83
2021/11/01 12:40:25;;;;;;;5.88;1.38;;;17.00;86.00;;;;;;5010310;28;20050;-83
2021/11/01 12:57:01;;;;;;;;;;;18.70;71.40;;;;;;4981276;28;20133;-85
2021/11/01 12:59:47;;;;;;;;;;;18.90;69.60;;;;;;4976211;28;19917;-84
2021/11/01 13:02:15;;;;;;;;;;;19.00;67.80;;;;;;4992843;28;19983;-83
2021/11/01 13:04:42;;;;;;;;;;;18.60;66.10;;;;;;4993139;28;19964;-84
2021/11/01 13:07:28;;;;;;;;;;;18.10;71.50;;;;;;4963669;28;19940;-82
2021/11/01 13:09:59;;;;;;;;;;;17.40;73.30;;;;;;4957245;28;19924;-83
2021/11/01 13:12:44;;;;;;;;;;;16.50;82.70;;;;;;4973472;28;19918;-83
2021/11/01 13:18:08;;;;;;;;;;;16.40;87.30;;;;;;4957106;28;19926;-82
2021/11/01 13:20:35;;;;;;;;;;;16.40;90.10;;;;;;4971257;28;19922;-83
2021/11/01 13:23:02;;;;;;;;;;;16.70;93.10;;;;;;4972107;28;19969;-82
2021/11/01 13:28:45;;;;;;;;;;;16.40;92.40;;;;;;4973039;28;19944;-83
2021/11/01 13:36:45;;;;;;;;;;;16.70;88.20;;;;;;4977591;28;19921;-82
2021/11/01 13:39:22;;;;;;;;;;;16.40;85.00;;;;;;4977112;28;19980;-83
2021/11/01 13:41:48;;;;;;;;;;;16.90;84.70;;;;;;4991954;28;19917;-83
2021/11/01 13:44:26;;;;;;;;;;;16.80;83.80;;;;;;4993550;28;19917;-83
2021/11/01 13:46:58;;;;;;;;;;;17.20;77.80;;;;;;4997558;28;19940;-83
2021/11/01 13:49:28;;;;;;;;;;;16.90;76.30;;;;;;5001155;28;20257;-83
2021/11/01 13:52:06;;;;;;;;;;;16.80;78.00;;;;;;4974104;28;19932;-81
2021/11/01 13:54:49;;;;;;;;;;;16.70;78.70;;;;;;5004083;28;19933;-81
2021/11/01 13:57:16;;;;;;;;;;;16.50;82.40;;;;;;4971734;28;19917;-81
2021/11/01 14:02:44;;;;;;;;;;;16.80;89.90;;;;;;4993260;28;20000;-81
2021/11/01 14:27:12;;;;;;;;;;;18.40;68.60;;;;;;4953311;28;20400;-83
2021/11/01 15:08:27;;;;;;;;;;;16.20;78.60;;;;;;4934276;29;19929;-79
2021/11/01 15:18:49;;;;;;;;;;;14.50;97.00;;;;;;4905384;29;19963;-76
2021/11/01 15:29:41;;;;;;;;;;;13.90;99.90;;;;;;4952733;28;19977;-77
2021/11/01 15:37:43;;;;;;;;;;;13.10;99.90;;;;;;4990930;28;19918;-76
2021/11/01 16:18:27;;;;;;;;;;;11.00;99.90;;;;;;5026142;28;19921;-79
2021/11/01 16:20:53;;;;;;;;;;;10.90;99.90;;;;;;4975283;28;19927;-78
2021/11/01 16:25:59;;;;;;;;;;;10.90;99.90;;;;;;4964239;28;19924;-79
2021/11/01 16:28:26;;;;;;;;;;;10.70;99.90;;;;;;4926908;28;19922;-79
2021/11/01 16:31:40;;;;;;;;;;;10.70;99.90;;;;;;4991252;28;19921;-81
2021/11/01 16:33:46;;;;;;;;;;;10.70;99.90;;;;;;4971994;28;19918;-79
2021/11/01 16:36:24;;;;;;;;;;;10.60;99.90;;;;;;4955368;28;19968;-79
2021/11/01 16:38:53;;;;;;;;;;;10.60;99.90;;;;;;4953237;28;19939;-79
2021/11/01 16:41:22;;;;;;;;;;;10.60;99.90;;;;;;4971134;28;20290;-79
2021/11/01 16:43:49;;;;;;;;;;;10.50;99.90;;;;;;4973090;28;19992;-79
2021/11/01 16:46:15;;;;;;;;;;;10.60;99.90;;;;;;4977916;28;20356;-80
2021/11/01 16:48:45;;;;;;;;;;;10.60;99.90;;;;;;4979254;28;19973;-80
2021/11/01 16:51:11;;;;;;;;;;;10.50;99.90;;;;;;5005916;28;19956;-79
2021/11/01 16:53:40;;;;;;;;;;;10.40;99.90;;;;;;5002615;28;19940;-80
2021/11/01 16:56:35;;;;;;;;;;;10.40;99.90;;;;;;5013018;28;19917;-80
2021/11/01 16:59:08;;;;;;;;;;;10.40;99.90;;;;;;4993487;28;19929;-81
2021/11/01 17:01:34;;;;;;;;;;;10.30;99.90;;;;;;4994348;28;19921;-80
2021/11/01 17:04:05;;;;;;;;;;;10.30;99.90;;;;;;4993889;28;19924;-82
2021/11/01 17:06:49;;;;;;;;;;;10.30;99.90;;;;;;5010850;28;19951;-79
2021/11/01 17:36:23;;;;;;;;;;;10.10;99.90;;;;;;5007952;28;19918;-79
2021/11/01 18:51:03;;;;;;;;;;;9.90;99.90;;;;;;4969348;28;20371;-80
2021/11/01 18:53:34;;;;;;;;;;;9.90;99.90;;;;;;4919779;29;20060;-80
2021/11/01 18:56:02;;;;;;;;;;;9.80;99.90;;;;;;4937576;29;19918;-79
2021/11/01 18:58:31;;;;;;;;;;;9.90;99.90;;;;;;4937682;29;19968;-79
2021/11/01 19:00:58;;;;;;;;;;;10.00;99.90;;;;;;4937361;29;19918;-79
2021/11/01 19:03:27;;;;;;;;;;;10.00;99.90;;;;;;4936816;29;19918;-79
2021/11/01 19:08:44;;;;;;;;;;;10.10;99.90;;;;;;4969129;28;19918;-80
2021/11/01 20:04:19;;;;;;;;;;;9.30;99.90;;;;;;4968525;28;19926;-79
2021/11/01 21:25:58;;;;;;;;;;;7.90;99.90;;;;;;4993938;28;20382;-78
2021/11/01 21:28:24;;;;;;;;;;;7.90;99.90;;;;;;4975845;28;20032;-78
2021/11/01 21:30:50;;;;;;;;;;;7.90;99.90;;;;;;4976983;28;20099;-80
2021/11/01 21:33:19;;;;;;;;;;;7.90;99.90;;;;;;4993952;28;19953;-79
2021/11/01 21:35:48;;;;;;;;;;;7.90;99.90;;;;;;5026337;28;19917;-80
2021/11/01 21:38:15;;;;;;;;;;;7.90;99.90;;;;;;5025899;28;19922;-79
2021/11/01 21:40:45;;;;;;;;;;;7.90;99.90;;;;;;4991899;28;19917;-78
2021/11/01 21:43:12;;;;;;;;;;;7.90;99.90;;;;;;5010165;28;19917;-79
2021/11/01 21:45:39;;;;;;;;;;;7.90;99.90;;;;;;4978137;28;19917;-80
2021/11/01 21:48:05;;;;;;;;;;;7.90;99.90;;;;;;5009747;28;19921;-80
2021/11/01 21:50:31;;;;;;;;;;;7.80;99.90;;;;;;4976495;28;19917;-80
2021/11/01 21:53:00;;;;;;;;;;;7.80;99.90;;;;;;4993248;28;19918;-80
2021/11/01 21:55:30;;;;;;;;;;;7.80;99.90;;;;;;4977177;28;20004;-79
2021/11/01 21:58:05;;;;;;;;;;;7.80;99.90;;;;;;4993553;28;19975;-80
2021/11/01 22:17:19;;;;;;;;;;;7.50;99.90;;;;;;4915016;29;19961;-80
2021/11/01 22:19:57;;;;;;;;;;;7.50;99.90;;;;;;4899262;29;19934;-79
2021/11/01 22:25:04;;;;;;;;;;;7.40;99.90;;;;;;4934290;29;19997;-80
2021/11/01 22:33:18;;;;;;;;;;;7.30;99.90;;;;;;4953192;28;19981;-80
2021/11/01 22:41:11;;;;;;;;;;;7.10;99.90;;;;;;4919522;28;20030;-79
2021/11/01 22:46:42;;;;;;;;;;;7.10;99.90;;;;;;4936852;29;20109;-81
2021/11/01 22:57:24;;;;;;;;;;;7.10;99.90;;;;;;5010921;28;19921;-80
2021/11/01 22:59:50;;;;;;;;;;;7.10;99.90;;;;;;4990674;28;19929;-79
2021/11/01 23:02:17;;;;;;;;;;;7.10;99.90;;;;;;4979896;28;19921;-79
2021/11/01 23:04:51;;;;;;;;;;;7.10;99.90;;;;;;4979653;28;19917;-79
2021/11/01 23:31:42;;;;;;;;;;;6.80;99.90;;;;;;5009338;28;19917;-79
2021/11/01 23:34:09;;;;;;;;;;;6.80;99.90;;;;;;4977023;28;19918;-79
2021/11/01 23:36:38;;;;;;;;;;;6.80;99.90;;;;;;4995734;28;19921;-79
2021/11/01 23:39:08;;;;;;;;;;;6.80;99.90;;;;;;4979026;28;19922;-79
2021/11/01 23:41:37;;;;;;;;;;;6.80;99.90;;;;;;4996156;28;19988;-79
2021/11/01 23:44:03;;;;;;;;;;;6.70;99.90;;;;;;4996238;28;19925;-80
2021/11/01 23:46:29;;;;;;;;;;;6.70;99.90;;;;;;4979361;28;19978;-79
2021/11/01 23:48:55;;;;;;;;;;;6.70;99.90;;;;;;4986536;28;20008;-79
2021/11/01 23:51:31;;;;;;;;;;;6.70;99.90;;;;;;4976897;28;19921;-79
2021/11/01 23:56:34;;;;;;;;;;;6.60;99.90;;;;;;5013346;28;20044;-80
2021/11/01 23:59:01;;;;;;;;;;;6.60;99.90;;;;;;5012343;28;19921;-79
